Time;durP1;ratioP1;P1;durP2;ratioP2;P2;SDS_P1;SDS_P2;PMS_P1;PMS_P2;Temp;Humidity;BMP_temperature;BMP_pressure;BME280_temperature;BME280_humidity;BME280_pressure;Samples;Min_cycle;Max_cycle;Signal;HPM_P1;HPM_P2
2022/12/01 00:01:40;;;;;;;81.80;43.70;;;5.20;99.90;;;;;;5042045;28;20042;-77
2022/12/01 00:04:06;;;;;;;84.57;43.28;;;5.20;99.90;;;;;;5010818;28;20065;-77
2022/12/01 00:06:31;;;;;;;91.78;44.35;;;5.20;99.90;;;;;;5019228;28;20102;-77
2022/12/01 00:11:41;;;;;;;82.82;42.63;;;5.20;99.90;;;;;;5050790;28;20102;-77
2022/12/01 00:14:06;;;;;;;84.35;43.63;;;5.20;99.90;;;;;;5034937;28;20034;-77
2022/12/01 00:16:33;;;;;;;90.95;43.60;;;5.20;99.90;;;;;;5021097;28;20403;-77
2022/12/01 00:18:59;;;;;;;92.43;44.42;;;5.20;99.90;;;;;;5007477;28;20041;-77
2022/12/01 00:21:25;;;;;;;81.88;43.17;;;5.20;99.90;;;;;;5037569;28;20490;-77
2022/12/01 00:23:53;;;;;;;88.60;43.95;;;5.20;99.90;;;;;;5034880;28;20037;-77
2022/12/01 00:26:20;;;;;;;92.35;44.38;;;5.20;99.90;;;;;;5041218;28;20097;-77
2022/12/01 00:28:51;;;;;;;88.80;44.25;;;5.20;99.90;;;;;;5027923;28;20092;-77
2022/12/01 00:31:17;;;;;;;90.32;43.28;;;5.20;99.90;;;;;;5037049;28;20029;-77
2022/12/01 00:33:43;;;;;;;90.10;43.03;;;5.20;99.90;;;;;;5031512;28;20381;-77
2022/12/01 00:36:08;;;;;;;91.00;45.58;;;5.20;99.90;;;;;;5013864;28;20041;-77
2022/12/01 00:38:34;;;;;;;92.22;44.80;;;5.30;99.90;;;;;;5028088;28;20080;-78
2022/12/01 00:41:00;;;;;;;100.03;46.72;;;5.30;99.90;;;;;;5021955;28;20530;-77
2022/12/01 00:43:26;;;;;;;93.32;45.50;;;5.30;99.90;;;;;;5035697;28;20443;-77
2022/12/01 00:45:53;;;;;;;97.05;44.80;;;5.30;99.90;;;;;;5022938;28;20049;-77
2022/12/01 00:48:19;;;;;;;97.47;45.22;;;5.30;99.90;;;;;;5028675;28;20037;-77
2022/12/01 00:50:45;;;;;;;94.68;45.95;;;5.20;99.90;;;;;;5037352;28;20033;-77
2022/12/01 00:53:10;;;;;;;93.45;46.10;;;5.30;99.90;;;;;;5038403;28;20076;-77
2022/12/01 00:55:36;;;;;;;95.97;44.22;;;5.30;99.90;;;;;;5031878;28;20041;-77
2022/12/01 00:58:01;;;;;;;93.53;45.78;;;5.30;99.90;;;;;;5040526;28;20045;-78
2022/12/01 01:00:27;;;;;;;92.90;44.95;;;5.30;99.90;;;;;;5036930;28;20555;-77
2022/12/01 01:02:52;;;;;;;89.13;44.38;;;5.30;99.90;;;;;;5042354;28;20387;-77
2022/12/01 01:05:18;;;;;;;90.93;44.78;;;5.30;99.90;;;;;;5050313;28;20040;-77
2022/12/01 01:07:44;;;;;;;93.85;46.03;;;5.30;99.90;;;;;;5041527;28;20029;-77
2022/12/01 01:10:10;;;;;;;95.85;44.78;;;5.20;99.90;;;;;;5034272;28;20029;-77
2022/12/01 01:12:37;;;;;;;99.75;45.67;;;5.30;99.90;;;;;;5032983;28;20033;-77
2022/12/01 01:15:03;;;;;;;93.13;44.58;;;5.30;99.90;;;;;;5041962;28;20525;-77
2022/12/01 01:17:29;;;;;;;93.15;44.80;;;5.30;99.90;;;;;;5038493;28;20099;-77
2022/12/01 01:19:54;;;;;;;88.72;43.25;;;5.30;99.90;;;;;;5020673;28;20041;-77
2022/12/01 01:22:20;;;;;;;90.03;44.85;;;5.30;99.90;;;;;;5012743;28;20033;-77
2022/12/01 01:24:46;;;;;;;90.70;43.95;;;5.30;99.90;;;;;;5031713;28;20079;-78
2022/12/01 01:27:11;;;;;;;84.65;42.28;;;5.30;99.90;;;;;;5014775;28;20049;-77
2022/12/01 01:29:37;;;;;;;88.05;41.75;;;5.30;99.90;;;;;;5019927;28;20038;-77
2022/12/01 01:32:03;;;;;;;90.28;43.90;;;5.30;99.90;;;;;;5032271;28;20044;-77
2022/12/01 01:34:29;;;;;;;93.22;43.40;;;5.30;99.90;;;;;;5011121;28;20041;-77
2022/12/01 01:36:54;;;;;;;89.30;42.92;;;5.30;99.90;;;;;;5021611;28;20052;-77
2022/12/01 01:39:21;;;;;;;86.80;41.55;;;5.30;99.90;;;;;;5028478;28;20483;-77
2022/12/01 01:41:46;;;;;;;82.95;43.05;;;5.30;99.90;;;;;;5041322;28;20060;-77
2022/12/01 01:44:54;;;;;;;87.80;42.50;;;5.30;99.90;;;;;;5040219;28;20126;-77
2022/12/01 01:47:41;;;;;;;89.82;43.08;;;5.30;99.90;;;;;;4966961;28;20385;-78
2022/12/01 01:50:11;;;;;;;86.78;42.15;;;5.30;99.90;;;;;;4969487;28;20092;-78
2022/12/01 01:53:01;;;;;;;91.20;43.38;;;5.30;99.90;;;;;;5020390;28;20145;-77
2022/12/01 01:55:28;;;;;;;84.88;41.42;;;5.30;99.90;;;;;;5053304;28;20170;-77
2022/12/01 01:57:54;;;;;;;88.63;41.95;;;5.30;99.90;;;;;;5052853;28;20435;-77
2022/12/01 02:00:21;;;;;;;85.97;42.33;;;5.30;99.90;;;;;;5043565;28;20114;-77
2022/12/01 02:02:48;;;;;;;91.05;43.22;;;5.30;99.90;;;;;;5024894;28;20025;-77
2022/12/01 02:05:19;;;;;;;90.75;44.03;;;5.30;99.90;;;;;;5024894;28;20487;-77
2022/12/01 02:07:46;;;;;;;89.15;43.08;;;5.30;99.90;;;;;;5013680;28;20400;-77
2022/12/01 02:10:13;;;;;;;89.47;44.53;;;5.30;99.90;;;;;;5029792;28;20518;-77
2022/12/01 02:13:03;;;;;;;86.90;45.03;;;5.30;99.90;;;;;;5023411;28;20041;-77
2022/12/01 02:15:54;;;;;;;86.03;42.83;;;5.30;99.90;;;;;;5042112;28;20403;-77
2022/12/01 02:18:48;;;;;;;88.95;42.65;;;5.30;99.90;;;;;;5052592;28;20041;-77
2022/12/01 02:21:26;;;;;;;89.95;43.83;;;5.30;99.90;;;;;;5011448;28;20120;-78
2022/12/01 02:24:13;;;;;;;91.68;43.50;;;5.30;99.90;;;;;;5037393;28;20041;-77
2022/12/01 02:26:42;;;;;;;80.93;42.28;;;5.30;99.90;;;;;;5048467;28;20480;-77
2022/12/01 02:29:15;;;;;;;87.70;42.95;;;5.30;99.90;;;;;;5039273;28;20033;-77
2022/12/01 02:32:06;;;;;;;86.63;42.95;;;5.30;99.90;;;;;;5040716;28;20044;-77
2022/12/01 02:34:39;;;;;;;84.88;42.97;;;5.30;99.90;;;;;;5014116;28;20049;-77
2022/12/01 02:37:11;;;;;;;85.70;44.03;;;5.30;99.90;;;;;;5020250;28;20034;-77
2022/12/01 02:40:04;;;;;;;86.03;42.63;;;5.30;99.90;;;;;;5029376;28;20038;-77
2022/12/01 02:42:52;;;;;;;90.97;45.17;;;5.30;99.90;;;;;;5040069;28;20072;-77
2022/12/01 02:45:59;;;;;;;84.72;43.03;;;5.30;99.90;;;;;;5032463;28;20052;-78
2022/12/01 02:48:37;;;;;;;85.63;42.70;;;5.30;99.90;;;;;;5012052;28;20049;-78
2022/12/01 02:51:15;;;;;;;85.20;43.20;;;5.30;99.90;;;;;;5032155;28;20120;-77
2022/12/01 02:53:41;;;;;;;84.50;43.35;;;5.30;99.90;;;;;;5024753;28;20050;-78
2022/12/01 02:56:10;;;;;;;86.70;43.65;;;5.30;99.90;;;;;;5021053;28;20486;-78
2022/12/01 02:58:36;;;;;;;82.57;44.30;;;5.30;99.90;;;;;;5032280;28;20041;-78
2022/12/01 03:01:29;;;;;;;83.15;43.28;;;5.30;99.90;;;;;;5035867;28;20517;-78
2022/12/01 03:04:29;;;;;;;86.63;44.15;;;5.30;99.90;;;;;;5015773;28;20045;-78
2022/12/01 03:07:16;;;;;;;83.38;43.15;;;5.30;99.90;;;;;;5031522;28;20555;-78
2022/12/01 03:09:45;;;;;;;88.15;43.45;;;5.30;99.90;;;;;;5033276;28;20046;-77
2022/12/01 03:12:34;;;;;;;86.70;44.38;;;5.30;99.90;;;;;;5027250;28;20505;-77
2022/12/01 03:15:29;;;;;;;87.50;43.70;;;5.30;99.90;;;;;;5037673;28;20450;-77
2022/12/01 03:18:00;;;;;;;84.78;43.55;;;5.30;99.90;;;;;;5009367;28;20041;-77
2022/12/01 03:21:08;;;;;;;89.63;46.90;;;5.30;99.90;;;;;;5035703;28;20432;-77
2022/12/01 03:23:39;;;;;;;81.85;43.92;;;5.30;99.90;;;;;;5038796;28;20060;-77
2022/12/01 03:26:08;;;;;;;78.72;44.22;;;5.30;99.90;;;;;;5051634;28;20258;-77
2022/12/01 03:28:41;;;;;;;86.68;45.47;;;5.30;99.90;;;;;;5048391;28;20044;-77
2022/12/01 03:31:11;;;;;;;83.30;44.05;;;5.30;99.90;;;;;;5003523;28;20041;-78
2022/12/01 03:33:45;;;;;;;79.35;43.75;;;5.30;99.90;;;;;;5018871;28;20040;-77
2022/12/01 03:36:28;;;;;;;79.07;43.13;;;5.30;99.90;;;;;;5042963;28;20139;-77
2022/12/01 03:39:01;;;;;;;83.03;44.25;;;5.30;99.90;;;;;;5051076;28;20044;-79
2022/12/01 03:42:08;;;;;;;77.88;43.85;;;5.30;99.90;;;;;;5038353;28;20510;-78
2022/12/01 03:44:47;;;;;;;79.47;43.50;;;5.30;99.90;;;;;;4982578;28;20128;-77
2022/12/01 03:47:20;;;;;;;82.65;45.22;;;5.30;99.90;;;;;;5024337;28;20056;-77
2022/12/01 03:49:48;;;;;;;83.30;44.55;;;5.30;99.90;;;;;;5045271;28;20701;-77
2022/12/01 03:52:53;;;;;;;81.13;44.90;;;5.30;99.90;;;;;;5022668;28;20044;-78
2022/12/01 03:55:21;;;;;;;78.10;43.63;;;5.30;99.90;;;;;;5014810;28;20041;-77
2022/12/01 03:58:00;;;;;;;78.07;43.95;;;5.30;99.90;;;;;;5035734;23;20033;-81
2022/12/01 04:00:26;;;;;;;76.75;43.65;;;5.30;99.90;;;;;;4978150;28;20061;-80
2022/12/01 04:02:56;;;;;;;78.50;43.92;;;5.30;99.90;;;;;;4967628;28;20161;-80
2022/12/01 04:05:23;;;;;;;77.75;42.20;;;5.30;99.90;;;;;;5003036;28;20470;-80
2022/12/01 04:07:48;;;;;;;80.28;44.00;;;5.30;99.90;;;;;;4960514;28;20392;-80
2022/12/01 04:10:14;;;;;;;83.93;45.00;;;5.30;99.90;;;;;;4997627;28;20033;-80
2022/12/01 04:12:39;;;;;;;79.53;44.72;;;5.30;99.90;;;;;;4997992;28;20125;-80
2022/12/01 04:15:09;;;;;;;79.22;44.10;;;5.30;99.90;;;;;;4987468;28;20034;-80
2022/12/01 04:17:35;;;;;;;76.78;44.60;;;5.30;99.90;;;;;;4987643;28;20523;-81
2022/12/01 04:20:02;;;;;;;76.40;43.65;;;5.20;99.90;;;;;;5009800;28;20064;-80
2022/12/01 04:22:28;;;;;;;76.90;43.67;;;5.20;99.90;;;;;;4987613;28;20029;-80
2022/12/01 04:24:53;;;;;;;77.07;43.35;;;5.20;99.90;;;;;;4971513;28;20045;-80
2022/12/01 04:27:19;;;;;;;84.25;43.88;;;5.20;99.90;;;;;;4985646;28;20034;-80
2022/12/01 04:29:45;;;;;;;78.47;43.38;;;5.20;99.90;;;;;;5000925;28;20044;-80
2022/12/01 04:32:11;;;;;;;77.97;44.25;;;5.20;99.90;;;;;;4991261;28;20029;-80
2022/12/01 04:34:37;;;;;;;76.38;44.05;;;5.20;99.90;;;;;;4999244;28;20049;-81
2022/12/01 04:37:03;;;;;;;75.03;41.53;;;5.20;99.90;;;;;;4998387;28;20507;-80
2022/12/01 04:39:29;;;;;;;74.78;43.10;;;5.10;99.90;;;;;;4992848;28;20061;-80
2022/12/01 04:41:54;;;;;;;78.28;44.30;;;5.20;99.90;;;;;;4986272;28;20073;-80
2022/12/01 04:44:20;;;;;;;75.32;44.08;;;5.20;99.90;;;;;;4991225;28;20400;-80
2022/12/01 04:46:45;;;;;;;78.05;43.33;;;5.20;99.90;;;;;;5015700;28;20040;-80
2022/12/01 04:49:11;;;;;;;80.45;43.67;;;5.20;99.90;;;;;;4995893;28;20121;-80
2022/12/01 04:51:37;;;;;;;74.55;42.92;;;5.10;99.90;;;;;;4974668;28;20045;-80
2022/12/01 04:54:04;;;;;;;74.57;42.65;;;5.10;99.90;;;;;;4992543;28;20049;-80
2022/12/01 04:56:30;;;;;;;79.25;43.53;;;5.20;99.90;;;;;;4995185;28;20061;-80
2022/12/01 04:58:57;;;;;;;75.82;42.20;;;5.10;99.90;;;;;;5006840;28;20118;-80
2022/12/01 05:01:23;;;;;;;82.80;44.50;;;5.10;99.90;;;;;;4994465;28;20080;-80
2022/12/01 05:03:49;;;;;;;73.65;43.22;;;5.10;99.90;;;;;;4981886;28;20119;-80
2022/12/01 05:06:18;;;;;;;79.80;43.70;;;5.10;99.90;;;;;;4979472;28;20045;-80
2022/12/01 05:08:43;;;;;;;78.60;43.22;;;5.10;99.90;;;;;;4984955;28;20046;-80
2022/12/01 05:11:11;;;;;;;79.82;44.17;;;5.10;99.90;;;;;;4989237;28;20381;-80
2022/12/01 05:13:41;;;;;;;78.20;44.38;;;5.10;99.90;;;;;;5005805;28;20435;-80
2022/12/01 05:16:16;;;;;;;75.20;43.55;;;5.10;99.90;;;;;;4993544;28;20033;-80
2022/12/01 05:18:42;;;;;;;75.68;42.72;;;5.10;99.90;;;;;;4967839;28;20552;-80
2022/12/01 05:21:09;;;;;;;70.70;40.75;;;5.10;99.90;;;;;;4982984;28;20132;-81
2022/12/01 05:23:36;;;;;;;85.32;43.72;;;5.10;99.90;;;;;;4988297;28;20050;-80
2022/12/01 05:26:04;;;;;;;79.63;44.90;;;5.10;99.90;;;;;;4988999;28;20045;-80
2022/12/01 05:28:30;;;;;;;83.18;42.22;;;5.10;99.90;;;;;;4988926;28;20117;-80
2022/12/01 05:30:56;;;;;;;75.28;42.25;;;5.10;99.90;;;;;;4983629;28;20104;-80
2022/12/01 05:33:23;;;;;;;83.88;46.05;;;5.10;99.90;;;;;;4986641;28;20440;-80
2022/12/01 05:35:50;;;;;;;81.18;43.85;;;5.10;99.90;;;;;;5002267;28;20096;-80
2022/12/01 05:38:16;;;;;;;79.97;45.00;;;5.10;99.90;;;;;;5009641;28;20511;-80
2022/12/01 05:40:42;;;;;;;77.38;44.67;;;5.10;99.90;;;;;;5006166;28;20092;-81
2022/12/01 05:43:08;;;;;;;78.10;42.75;;;5.10;99.90;;;;;;4988193;28;20050;-80
2022/12/01 05:45:34;;;;;;;84.45;45.88;;;5.10;99.90;;;;;;5004312;28;20037;-80
2022/12/01 05:48:01;;;;;;;76.93;44.55;;;5.10;99.90;;;;;;4981662;28;20033;-80
2022/12/01 05:50:28;;;;;;;81.60;45.45;;;5.10;99.90;;;;;;4981893;28;20522;-81
2022/12/01 05:52:54;;;;;;;82.70;45.70;;;5.10;99.90;;;;;;4991633;28;20037;-81
2022/12/01 05:55:20;;;;;;;82.05;46.45;;;5.10;99.90;;;;;;4996137;28;20034;-80
2022/12/01 05:57:46;;;;;;;81.72;45.00;;;5.10;99.90;;;;;;4985686;28;20408;-80
2022/12/01 06:00:12;;;;;;;83.55;46.28;;;5.10;99.90;;;;;;4964489;28;20053;-80
2022/12/01 06:02:41;;;;;;;81.70;44.75;;;5.10;99.90;;;;;;4996582;28;20435;-80
2022/12/01 06:05:08;;;;;;;83.45;46.00;;;5.10;99.90;;;;;;4991287;28;20452;-80
2022/12/01 06:07:34;;;;;;;82.43;46.15;;;5.10;99.90;;;;;;4989381;28;20492;-80
2022/12/01 06:10:00;;;;;;;79.55;45.33;;;5.10;99.90;;;;;;4997790;28;20534;-81
2022/12/01 06:12:26;;;;;;;85.90;46.65;;;5.10;99.90;;;;;;4988246;28;20038;-78
2022/12/01 06:14:52;;;;;;;85.07;47.80;;;5.10;99.90;;;;;;4988060;28;20041;-77
2022/12/01 06:17:17;;;;;;;86.78;46.55;;;5.10;99.90;;;;;;5006930;28;20044;-76
2022/12/01 06:19:43;;;;;;;86.60;48.90;;;5.10;99.90;;;;;;4978146;28;20103;-80
2022/12/01 06:22:09;;;;;;;87.07;48.13;;;5.10;99.90;;;;;;4978527;28;20129;-79
2022/12/01 06:24:34;;;;;;;88.43;46.22;;;5.10;99.90;;;;;;4987904;28;20069;-79
2022/12/01 06:27:00;;;;;;;82.45;45.55;;;5.10;99.90;;;;;;4994218;28;20038;-80
2022/12/01 06:29:26;;;;;;;89.38;47.60;;;5.10;99.90;;;;;;4991162;28;20030;-80
2022/12/01 06:31:51;;;;;;;86.60;46.75;;;5.10;99.90;;;;;;5006451;28;20037;-78
2022/12/01 06:34:17;;;;;;;95.95;47.30;;;5.10;99.90;;;;;;4996180;28;20057;-80
2022/12/01 06:36:42;;;;;;;90.68;48.45;;;5.10;99.90;;;;;;4969598;28;20125;-82
2022/12/01 06:39:08;;;;;;;82.32;44.10;;;5.10;99.90;;;;;;4980800;28;20526;-82
2022/12/01 06:41:35;;;;;;;93.65;46.75;;;5.10;99.90;;;;;;5005071;28;20038;-82
2022/12/01 06:44:01;;;;;;;88.13;47.65;;;5.10;99.90;;;;;;4999984;28;20060;-80
2022/12/01 06:46:26;;;;;;;93.50;49.85;;;5.00;99.90;;;;;;4977995;28;20488;-80
2022/12/01 06:48:52;;;;;;;91.07;47.72;;;5.00;99.90;;;;;;4977004;28;20327;-80
2022/12/01 06:51:17;;;;;;;89.50;46.38;;;5.00;99.90;;;;;;4961504;28;20485;-79
2022/12/01 06:53:43;;;;;;;91.82;48.53;;;5.00;99.90;;;;;;4961494;28;20177;-80
2022/12/01 06:56:09;;;;;;;90.57;45.70;;;5.00;99.90;;;;;;4970952;28;20084;-80
2022/12/01 06:58:35;;;;;;;94.88;49.08;;;5.00;99.90;;;;;;4977309;28;20129;-80
2022/12/01 07:01:10;;;;;;;94.25;47.90;;;5.00;99.90;;;;;;5000596;28;20131;-77
2022/12/01 07:03:36;;;;;;;85.55;44.05;;;5.00;99.90;;;;;;4976509;28;20038;-80
2022/12/01 07:06:02;;;;;;;85.60;45.83;;;5.00;99.90;;;;;;4974336;28;20113;-78
2022/12/01 07:08:29;;;;;;;89.88;45.42;;;5.00;99.90;;;;;;4991982;28;20038;-78
2022/12/01 07:11:07;;;;;;;79.75;42.45;;;4.90;99.90;;;;;;4996609;28;20068;-77
2022/12/01 07:13:34;;;;;;;86.00;45.03;;;4.90;99.90;;;;;;4991322;28;20407;-78
2022/12/01 07:16:00;;;;;;;80.10;40.67;;;4.90;99.90;;;;;;4989951;28;20048;-80
2022/12/01 07:18:26;;;;;;;84.00;42.92;;;4.90;99.90;;;;;;4981130;28;20034;-80
2022/12/01 07:20:52;;;;;;;82.10;41.95;;;4.90;99.90;;;;;;4996087;28;20045;-78
2022/12/01 07:23:17;;;;;;;89.95;45.70;;;4.90;99.90;;;;;;5002308;28;20076;-79
2022/12/01 07:25:43;;;;;;;89.07;43.75;;;4.70;99.90;;;;;;4982755;28;20053;-78
2022/12/01 07:28:08;;;;;;;89.38;41.90;;;4.70;99.90;;;;;;5002754;28;20033;-79
2022/12/01 07:30:34;;;;;;;81.68;40.90;;;4.60;99.90;;;;;;4972056;28;20146;-80
2022/12/01 07:33:00;;;;;;;78.60;40.85;;;4.50;99.90;;;;;;4960497;28;20057;-80
2022/12/01 07:35:26;;;;;;;84.82;42.28;;;4.40;99.90;;;;;;4960177;28;20042;-80
2022/12/01 07:37:55;;;;;;;93.68;42.70;;;4.30;99.90;;;;;;4976074;28;20045;-80
2022/12/01 07:40:21;;;;;;;84.55;41.58;;;4.20;99.90;;;;;;4960054;28;20038;-80
2022/12/01 07:42:47;;;;;;;91.30;43.60;;;4.10;99.90;;;;;;4960218;28;20038;-80
2022/12/01 07:45:12;;;;;;;94.13;40.15;;;4.00;99.90;;;;;;4976185;28;20042;-80
2022/12/01 07:47:38;;;;;;;79.32;38.25;;;3.90;99.90;;;;;;4960107;28;20480;-80
2022/12/01 07:50:04;;;;;;;78.00;40.35;;;3.80;99.90;;;;;;4976439;28;20034;-80
2022/12/01 07:52:30;;;;;;;83.85;39.80;;;3.70;99.90;;;;;;4960666;28;20046;-80
2022/12/01 07:54:55;;;;;;;71.05;37.22;;;3.70;99.90;;;;;;4976499;28;20396;-80
2022/12/01 07:57:22;;;;;;;73.22;38.28;;;3.60;99.90;;;;;;4976550;28;20101;-80
2022/12/01 07:59:48;;;;;;;73.85;36.92;;;3.60;99.90;;;;;;4976119;28;20053;-80
2022/12/01 08:02:14;;;;;;;76.60;38.70;;;3.50;99.90;;;;;;4976111;28;20045;-80
2022/12/01 08:04:39;;;;;;;75.35;38.42;;;3.40;99.90;;;;;;4960167;28;20125;-80
2022/12/01 08:07:05;;;;;;;78.38;38.05;;;3.40;99.90;;;;;;4976351;28;20411;-80
2022/12/01 08:09:31;;;;;;;85.75;41.67;;;3.50;99.90;;;;;;4976549;28;20030;-80
2022/12/01 08:11:56;;;;;;;96.85;45.35;;;3.50;99.90;;;;;;4959974;28;20382;-80
2022/12/01 08:14:22;;;;;;;101.55;43.22;;;3.50;99.90;;;;;;4960222;28;20061;-80
2022/12/01 08:16:48;;;;;;;147.30;54.33;;;3.60;99.90;;;;;;4960400;28;20049;-80
2022/12/01 08:19:13;;;;;;;124.50;48.03;;;3.70;99.90;;;;;;4976014;28;20412;-80
2022/12/01 08:21:39;;;;;;;122.55;48.10;;;3.70;99.90;;;;;;4976317;28;20078;-80
2022/12/01 08:24:05;;;;;;;132.57;52.08;;;3.80;99.90;;;;;;4975286;28;20039;-80
2022/12/01 08:26:31;;;;;;;129.63;52.15;;;3.90;99.90;;;;;;4959415;28;20516;-80
2022/12/01 08:28:56;;;;;;;120.10;52.17;;;3.90;99.90;;;;;;4975071;28;20038;-80
2022/12/01 08:31:34;;;;;;;139.50;55.58;;;4.00;99.90;;;;;;4958982;28;20034;-80
2022/12/01 08:34:00;;;;;;;134.52;53.38;;;4.10;99.90;;;;;;4959272;28;20053;-80
2022/12/01 08:36:26;;;;;;;130.15;51.30;;;4.20;99.90;;;;;;4975492;28;20164;-80
2022/12/01 08:38:53;;;;;;;132.13;52.72;;;4.20;99.90;;;;;;4959198;28;20038;-80
2022/12/01 08:41:19;;;;;;;131.50;53.25;;;4.30;99.90;;;;;;4959850;28;20038;-80
2022/12/01 08:43:45;;;;;;;127.95;54.40;;;4.40;99.90;;;;;;4958917;28;20515;-80
2022/12/01 08:46:12;;;;;;;138.93;55.83;;;4.40;99.90;;;;;;4975216;28;20038;-80
2022/12/01 08:48:38;;;;;;;128.60;53.75;;;4.40;99.90;;;;;;4974789;28;20034;-80
2022/12/01 08:51:12;;;;;;;130.23;53.45;;;4.50;99.90;;;;;;4959107;28;20508;-80
2022/12/01 08:53:42;;;;;;;122.43;52.97;;;4.50;99.90;;;;;;4975431;28;20038;-80
2022/12/01 08:56:20;;;;;;;124.50;52.60;;;4.60;99.90;;;;;;4976774;28;20097;-80
2022/12/01 08:58:46;;;;;;;139.27;54.38;;;4.70;99.90;;;;;;4978765;28;20045;-80
2022/12/01 09:01:14;;;;;;;115.50;49.58;;;4.70;99.90;;;;;;4963003;28;20046;-80
2022/12/01 09:03:40;;;;;;;120.15;51.60;;;4.70;99.90;;;;;;4979282;28;20473;-80
2022/12/01 09:06:12;;;;;;;112.63;51.92;;;4.80;99.90;;;;;;4979043;28;20125;-80
2022/12/01 09:08:38;;;;;;;107.88;51.08;;;4.80;99.90;;;;;;4963120;28;20407;-80
2022/12/01 09:11:11;;;;;;;115.07;49.33;;;4.80;99.90;;;;;;4979419;28;20040;-80
2022/12/01 09:13:38;;;;;;;104.72;46.70;;;4.70;99.90;;;;;;4979096;28;20516;-80
2022/12/01 09:16:16;;;;;;;110.85;48.78;;;4.80;99.90;;;;;;4963137;28;20107;-80
2022/12/01 09:18:43;;;;;;;100.90;45.60;;;4.70;99.90;;;;;;4978747;28;20448;-81
2022/12/01 09:21:15;;;;;;;113.40;47.75;;;4.70;99.90;;;;;;4979034;28;20092;-80
2022/12/01 09:23:41;;;;;;;109.47;48.42;;;4.60;99.90;;;;;;4978951;28;20100;-80
2022/12/01 09:26:07;;;;;;;113.93;48.13;;;4.60;99.90;;;;;;4978833;28;20141;-80
2022/12/01 09:28:33;;;;;;;100.90;46.25;;;4.60;99.90;;;;;;4978479;28;20085;-80
2022/12/01 09:31:07;;;;;;;109.57;46.70;;;4.50;99.90;;;;;;4962505;28;20049;-80
2022/12/01 09:33:33;;;;;;;102.97;46.17;;;4.40;99.90;;;;;;4978660;28;20251;-80
2022/12/01 09:36:00;;;;;;;125.97;51.78;;;4.40;99.90;;;;;;4978509;28;20519;-80
2022/12/01 09:38:28;;;;;;;141.50;53.40;;;4.30;99.90;;;;;;4978135;28;20058;-80
2022/12/01 09:40:55;;;;;;;140.20;53.15;;;4.30;99.90;;;;;;4978428;28;20124;-80
2022/12/01 09:43:29;;;;;;;143.68;54.60;;;4.30;99.90;;;;;;4978426;28;20124;-80
2022/12/01 09:46:01;;;;;;;136.18;53.03;;;4.40;99.90;;;;;;4978788;28;20042;-80
2022/12/01 09:48:32;;;;;;;161.48;57.17;;;4.50;99.90;;;;;;4977952;28;20519;-80
2022/12/01 09:50:58;;;;;;;132.48;53.10;;;4.60;99.90;;;;;;4978667;28;20042;-80
2022/12/01 09:53:27;;;;;;;149.48;53.78;;;4.60;99.90;;;;;;4962040;28;20403;-80
2022/12/01 09:55:54;;;;;;;192.05;55.92;;;4.60;99.90;;;;;;4978078;28;20050;-80
2022/12/01 09:58:26;;;;;;;143.82;53.47;;;4.70;99.90;;;;;;5009674;23;20038;-79
2022/12/01 10:00:53;;;;;;;132.43;52.17;;;4.70;99.90;;;;;;5033378;28;20044;-80
2022/12/01 10:03:34;;;;;;;139.77;52.67;;;4.80;99.90;;;;;;5033334;28;20037;-79
2022/12/01 10:06:09;;;;;;;128.60;47.63;;;4.70;99.90;;;;;;5033577;28;20750;-79
2022/12/01 10:08:39;;;;;;;122.88;49.25;;;4.70;99.90;;;;;;5032369;28;20072;-79
2022/12/01 10:11:32;;;;;;;157.90;51.00;;;4.70;99.90;;;;;;5033252;28;20041;-80
2022/12/01 10:13:58;;;;;;;118.38;46.25;;;4.70;99.90;;;;;;5016938;28;20045;-80
2022/12/01 10:16:33;;;;;;;128.93;48.78;;;4.70;99.90;;;;;;5033306;28;20473;-80
2022/12/01 10:19:31;;;;;;;173.77;49.97;;;4.70;99.90;;;;;;5032930;28;20127;-80
2022/12/01 10:22:03;;;;;;;138.48;48.25;;;4.70;99.90;;;;;;5019529;28;20060;-79
2022/12/01 10:24:34;;;;;;;192.27;54.60;;;4.60;99.90;;;;;;5032848;28;20037;-79
2022/12/01 10:27:00;;;;;;;141.73;49.90;;;4.70;99.90;;;;;;5016378;28;20044;-79
2022/12/01 10:29:47;;;;;;;157.15;52.75;;;4.60;99.90;;;;;;5016460;28;20037;-79
2022/12/01 10:32:19;;;;;;;111.63;47.90;;;4.70;99.90;;;;;;5016512;28;20052;-79
2022/12/01 10:34:46;;;;;;;134.50;51.53;;;4.70;99.90;;;;;;5032941;28;20388;-80
2022/12/01 10:37:22;;;;;;;118.93;51.22;;;4.80;99.90;;;;;;5032528;28;20037;-79
2022/12/01 10:39:50;;;;;;;120.80;50.72;;;4.90;99.90;;;;;;5032750;28;20056;-79
2022/12/01 10:42:26;;;;;;;128.25;51.30;;;5.00;99.90;;;;;;5032637;28;20549;-79
2022/12/01 10:44:53;;;;;;;128.85;49.83;;;5.10;99.90;;;;;;5032620;28;20049;-80
2022/12/01 10:47:22;;;;;;;108.85;47.72;;;5.20;99.90;;;;;;5016026;28;20582;-80
2022/12/01 10:49:48;;;;;;;119.65;50.38;;;5.30;99.90;;;;;;5032630;28;20037;-80
2022/12/01 10:52:40;;;;;;;116.75;48.60;;;5.40;99.90;;;;;;5032456;28;20033;-80
2022/12/01 10:55:28;;;;;;;119.95;48.80;;;5.50;99.90;;;;;;5032454;28;20045;-80
2022/12/01 10:57:56;;;;;;;114.20;48.80;;;5.60;99.90;;;;;;5022785;28;20073;-80
2022/12/01 11:00:25;;;;;;;110.55;49.83;;;5.60;99.90;;;;;;5032466;28;20045;-79
2022/12/01 11:02:51;;;;;;;104.85;47.72;;;5.70;99.90;;;;;;5032556;28;20400;-80
2022/12/01 11:05:31;;;;;;;108.13;50.05;;;5.80;99.90;;;;;;5032128;28;20040;-80
2022/12/01 11:07:58;;;;;;;98.75;46.20;;;5.80;99.90;;;;;;5032060;28;20399;-80
2022/12/01 11:10:29;;;;;;;108.80;50.50;;;5.90;99.90;;;;;;5032331;28;20037;-79
2022/12/01 11:13:16;;;;;;;99.38;48.08;;;6.00;99.90;;;;;;5015802;28;20056;-80
2022/12/01 11:15:53;;;;;;;103.35;47.53;;;6.10;99.90;;;;;;5032035;28;20038;-80
2022/12/01 11:18:27;;;;;;;94.03;46.28;;;6.20;99.90;;;;;;5015335;28;20173;-80
2022/12/01 11:21:12;;;;;;;95.40;45.45;;;6.20;99.90;;;;;;5030894;28;20039;-79
2022/12/01 11:23:47;;;;;;;84.40;44.55;;;6.30;99.90;;;;;;5015387;28;20042;-80
2022/12/01 11:26:12;;;;;;;83.68;45.08;;;6.30;99.90;;;;;;5015195;28;20557;-79
2022/12/01 11:28:59;;;;;;;82.85;42.88;;;6.50;99.90;;;;;;5014930;28;20092;-79
2022/12/01 11:31:44;;;;;;;80.57;44.22;;;6.60;99.90;;;;;;5015492;28;20407;-80
2022/12/01 11:34:33;;;;;;;79.25;43.53;;;6.70;99.90;;;;;;5031750;28;20041;-80
2022/12/01 11:37:02;;;;;;;73.30;41.60;;;6.90;99.90;;;;;;5031412;28;20116;-80
2022/12/01 11:39:43;;;;;;;73.82;41.67;;;7.10;99.90;;;;;;5031592;28;20041;-80
2022/12/01 11:42:19;;;;;;;68.88;40.65;;;7.40;99.90;;;;;;5031746;28;20049;-80
2022/12/01 11:44:51;;;;;;;63.10;39.00;;;7.50;99.90;;;;;;5031348;28;20049;-80
2022/12/01 11:47:19;;;;;;;67.57;38.60;;;7.70;99.90;;;;;;5031227;28;20077;-80
2022/12/01 11:49:51;;;;;;;64.53;37.55;;;7.80;99.90;;;;;;5014807;28;20319;-80
2022/12/01 11:52:32;;;;;;;64.37;38.50;;;7.80;99.90;;;;;;5031409;28;20320;-80
2022/12/01 11:54:59;;;;;;;59.78;36.15;;;7.80;99.90;;;;;;5031287;28;20045;-80
2022/12/01 11:57:28;;;;;;;59.47;36.30;;;7.80;99.90;;;;;;5030911;28;20053;-80
2022/12/01 11:59:54;;;;;;;54.28;35.95;;;7.70;99.90;;;;;;5031056;28;20078;-80
2022/12/01 12:02:37;;;;;;;50.50;32.25;;;7.50;99.90;;;;;;5031342;28;20132;-80
2022/12/01 12:05:08;;;;;;;50.15;31.65;;;7.40;99.90;;;;;;5031148;28;20495;-80
2022/12/01 12:07:48;;;;;;;47.42;31.23;;;7.20;99.90;;;;;;5014670;28;20095;-80
2022/12/01 12:10:38;;;;;;;49.38;31.33;;;7.20;99.90;;;;;;5031191;28;20341;-80
2022/12/01 12:13:26;;;;;;;47.70;32.08;;;7.10;99.90;;;;;;5014580;28;20047;-79
2022/12/01 12:16:07;;;;;;;45.38;31.58;;;7.00;99.90;;;;;;5031210;28;20438;-80
2022/12/01 12:19:12;;;;;;;48.47;32.38;;;6.90;99.90;;;;;;5030741;28;20038;-80
2022/12/01 12:22:00;;;;;;;48.83;32.72;;;6.90;99.90;;;;;;5030315;28;20049;-80
2022/12/01 12:24:46;;;;;;;52.35;33.17;;;6.90;99.90;;;;;;5014122;28;20492;-80
2022/12/01 12:27:15;;;;;;;48.70;32.55;;;6.80;99.90;;;;;;5030584;28;20081;-80
2022/12/01 12:30:18;;;;;;;50.15;32.88;;;6.80;99.90;;;;;;5030453;28;20076;-80
2022/12/01 12:33:03;;;;;;;53.60;32.25;;;6.70;99.90;;;;;;5030913;28;20522;-80
2022/12/01 12:35:43;;;;;;;46.65;31.35;;;6.70;99.90;;;;;;5014415;28;20442;-80
2022/12/01 12:38:40;;;;;;;49.88;33.33;;;6.70;99.90;;;;;;5030290;28;20037;-80
2022/12/01 12:41:28;;;;;;;48.70;33.45;;;6.70;99.90;;;;;;5030519;28;20116;-80
2022/12/01 12:44:08;;;;;;;47.33;32.70;;;6.70;99.90;;;;;;5030874;28;20045;-80
2022/12/01 12:47:05;;;;;;;53.05;33.53;;;6.70;99.90;;;;;;5030698;28;20041;-80
2022/12/01 12:49:45;;;;;;;50.05;35.08;;;6.70;99.90;;;;;;5030423;28;20042;-80
2022/12/01 12:52:32;;;;;;;49.90;32.67;;;6.70;99.90;;;;;;5014010;28;20048;-80
2022/12/01 12:55:09;;;;;;;51.35;32.42;;;6.80;99.90;;;;;;5030344;28;20159;-80
2022/12/01 12:57:39;;;;;;;51.17;33.78;;;6.80;99.90;;;;;;5030458;28;20045;-80
2022/12/01 13:00:15;;;;;;;48.03;31.92;;;6.80;99.90;;;;;;5013716;28;20046;-80